Time;durP1;ratioP1;P1;durP2;ratioP2;P2;SDS_P1;SDS_P2;PMS_P1;PMS_P2;Temp;Humidity;BMP_temperature;BMP_pressure;BME280_temperature;BME280_humidity;BME280_pressure;Samples;Min_cycle;Max_cycle;Signal;HPM_P1;HPM_P2
2022/10/20 00:00:05;;;;;;;2.45;1.42;;;7.70;99.90;;;;;;6294615;22;20079;-71
2022/10/20 00:02:30;;;;;;;3.35;1.65;;;7.60;99.90;;;;;;6294587;22;20049;-72
2022/10/20 00:04:56;;;;;;;3.42;1.75;;;7.50;99.90;;;;;;6295353;22;20053;-72
2022/10/20 00:07:22;;;;;;;6.32;1.50;;;7.30;99.90;;;;;;6295964;22;20011;-72
2022/10/20 00:09:48;;;;;;;4.22;1.92;;;7.20;99.90;;;;;;6292863;22;20033;-72
2022/10/20 00:12:13;;;;;;;3.47;1.83;;;7.10;99.90;;;;;;6283863;22;19995;-72
2022/10/20 00:14:39;;;;;;;4.30;1.77;;;7.10;99.90;;;;;;6254730;22;20121;-71
2022/10/20 00:17:05;;;;;;;2.42;1.60;;;7.00;99.90;;;;;;6288598;22;20466;-71
2022/10/20 00:19:31;;;;;;;3.25;1.75;;;7.00;99.90;;;;;;6294247;22;20094;-71
2022/10/20 00:21:57;;;;;;;3.00;1.60;;;7.00;99.90;;;;;;6294691;22;19996;-71
2022/10/20 00:24:23;;;;;;;3.67;1.70;;;6.90;99.90;;;;;;6266899;22;20010;-71
2022/10/20 00:26:49;;;;;;;2.10;1.70;;;6.90;99.90;;;;;;6293498;22;20015;-72
2022/10/20 00:29:14;;;;;;;5.07;1.83;;;6.90;99.90;;;;;;6293946;22;20019;-71
2022/10/20 00:31:40;;;;;;;4.28;2.05;;;6.80;99.90;;;;;;6292170;22;20003;-72
2022/10/20 00:34:05;;;;;;;3.80;1.67;;;6.80;99.90;;;;;;6266704;22;20010;-68
2022/10/20 00:36:31;;;;;;;4.72;1.80;;;6.80;99.90;;;;;;6293575;22;20462;-68
2022/10/20 00:39:02;;;;;;;4.82;1.40;;;6.90;99.90;;;;;;6294792;22;20479;-68
2022/10/20 00:41:28;;;;;;;4.57;2.10;;;6.90;99.90;;;;;;6294222;22;20302;-68
2022/10/20 00:43:55;;;;;;;4.32;1.90;;;6.90;99.90;;;;;;6293430;22;19999;-69
2022/10/20 00:46:39;;;;;;;5.45;1.63;;;6.90;99.90;;;;;;6292364;22;20003;-68
2022/10/20 00:49:16;;;;;;;3.42;2.00;;;7.00;99.90;;;;;;6290438;22;20011;-68
2022/10/20 00:51:42;;;;;;;4.05;2.10;;;7.10;99.90;;;;;;6294496;22;20003;-69
2022/10/20 00:54:12;;;;;;;4.38;2.25;;;7.20;99.90;;;;;;6292824;22;20021;-67
2022/10/20 00:56:41;;;;;;;4.10;1.90;;;7.20;99.90;;;;;;6267410;22;20453;-67
2022/10/20 00:59:07;;;;;;;2.15;1.30;;;7.20;99.90;;;;;;6292734;22;20011;-67
2022/10/20 01:01:33;;;;;;;2.72;1.48;;;7.20;99.90;;;;;;6292655;22;20052;-67
2022/10/20 01:03:59;;;;;;;2.15;1.35;;;7.10;99.90;;;;;;6292270;22;20007;-67
2022/10/20 01:06:25;;;;;;;2.85;1.65;;;6.90;99.90;;;;;;6295513;22;20546;-67
2022/10/20 01:08:52;;;;;;;3.33;1.65;;;6.90;99.90;;;;;;6292769;22;20022;-67
2022/10/20 01:11:31;;;;;;;2.92;1.80;;;6.90;99.90;;;;;;6294648;22;20313;-67
2022/10/20 01:14:05;;;;;;;2.53;1.35;;;6.90;99.90;;;;;;6297458;22;20061;-74
2022/10/20 01:16:55;;;;;;;3.90;1.67;;;6.90;99.90;;;;;;6267624;22;20038;-73
2022/10/20 01:19:45;;;;;;;3.05;1.90;;;6.90;99.90;;;;;;6294843;22;20011;-75
2022/10/20 01:22:33;;;;;;;3.08;1.63;;;6.90;99.90;;;;;;6296518;22;20064;-74
2022/10/20 01:25:06;;;;;;;5.07;2.20;;;6.80;99.90;;;;;;6295040;22;19999;-74
2022/10/20 01:27:43;;;;;;;3.63;1.90;;;6.70;99.90;;;;;;6296176;22;20449;-74
2022/10/20 01:30:18;;;;;;;3.97;2.50;;;6.70;99.90;;;;;;6295516;22;20007;-73
2022/10/20 01:33:12;;;;;;;4.00;2.25;;;6.60;99.90;;;;;;6296842;22;20003;-67
2022/10/20 01:35:51;;;;;;;4.60;1.92;;;6.60;99.90;;;;;;6295231;22;20057;-68
2022/10/20 01:38:28;;;;;;;2.95;2.03;;;6.50;99.90;;;;;;6294201;22;20596;-67
2022/10/20 01:41:26;;;;;;;2.85;2.35;;;6.50;99.90;;;;;;6292852;22;19999;-67
2022/10/20 01:43:52;;;;;;;3.13;1.60;;;6.40;99.90;;;;;;6263163;22;20487;-67
2022/10/20 01:46:23;;;;;;;3.22;1.80;;;6.40;99.90;;;;;;6293575;22;19999;-67
2022/10/20 01:48:49;;;;;;;2.03;1.80;;;6.40;99.90;;;;;;6293329;22;20008;-68
2022/10/20 01:51:14;;;;;;;2.83;1.90;;;6.30;99.90;;;;;;6294588;22;20003;-68
2022/10/20 01:53:40;;;;;;;2.05;1.48;;;6.30;99.90;;;;;;6292650;22;20540;-67
2022/10/20 01:56:15;;;;;;;1.85;1.30;;;6.30;99.90;;;;;;6294985;22;20003;-67
2022/10/20 01:58:59;;;;;;;1.92;1.50;;;6.30;99.90;;;;;;6293483;22;20500;-67
2022/10/20 02:02:00;;;;;;;3.72;1.48;;;6.30;99.90;;;;;;6294293;22;20019;-67
2022/10/20 02:05:04;;;;;;;2.70;1.40;;;6.30;99.90;;;;;;6298877;22;20003;-67
2022/10/20 02:07:31;;;;;;;3.40;1.50;;;6.30;99.90;;;;;;6299299;22;19996;-67
2022/10/20 02:10:25;;;;;;;1.63;1.30;;;6.20;99.90;;;;;;6298161;22;20056;-67
2022/10/20 02:12:56;;;;;;;2.42;1.52;;;6.20;99.90;;;;;;6295858;22;20088;-68
2022/10/20 02:15:25;;;;;;;2.15;1.42;;;6.10;99.90;;;;;;6298331;22;20092;-67
2022/10/20 02:17:58;;;;;;;2.20;1.50;;;6.10;99.90;;;;;;6272341;22;20118;-67
2022/10/20 02:20:25;;;;;;;2.45;1.30;;;6.10;99.90;;;;;;6300131;22;20000;-67
2022/10/20 02:22:51;;;;;;;1.40;1.27;;;6.20;99.90;;;;;;6299251;22;20456;-67
2022/10/20 02:25:18;;;;;;;2.35;1.90;;;6.20;99.90;;;;;;6298480;22;20010;-67
2022/10/20 02:27:46;;;;;;;1.85;1.42;;;6.30;99.90;;;;;;6300230;22;20102;-67
2022/10/20 02:30:15;;;;;;;2.10;1.10;;;6.20;99.90;;;;;;6297733;22;20771;-74
2022/10/20 02:32:42;;;;;;;3.22;1.40;;;6.20;99.90;;;;;;6300287;22;20003;-74
2022/10/20 02:35:25;;;;;;;2.17;1.40;;;6.20;99.90;;;;;;6300001;22;20026;-74
2022/10/20 02:37:50;;;;;;;1.55;1.30;;;6.20;99.90;;;;;;6296867;22;20019;-74
2022/10/20 02:40:16;;;;;;;1.45;1.13;;;6.20;99.90;;;;;;6270433;22;20099;-74
2022/10/20 02:42:42;;;;;;;3.00;1.52;;;6.10;99.90;;;;;;6300198;22;20790;-74
2022/10/20 02:45:08;;;;;;;1.98;1.30;;;5.90;99.90;;;;;;6296049;22;20000;-74
2022/10/20 02:47:34;;;;;;;1.63;1.13;;;5.80;99.90;;;;;;6299431;22;20007;-74
2022/10/20 02:50:00;;;;;;;3.63;1.42;;;5.80;99.90;;;;;;6298876;22;20431;-73
2022/10/20 02:52:26;;;;;;;1.75;1.10;;;5.70;99.90;;;;;;6297052;22;20008;-74
2022/10/20 02:54:51;;;;;;;2.92;1.52;;;5.70;99.90;;;;;;6271716;22;20018;-74
2022/10/20 02:57:17;;;;;;;2.10;1.50;;;5.70;99.90;;;;;;6299708;22;20006;-74
2022/10/20 02:59:42;;;;;;;2.03;1.55;;;5.70;99.90;;;;;;6297194;22;20797;-74
2022/10/20 03:02:08;;;;;;;1.60;1.42;;;5.70;99.90;;;;;;6297634;22;20010;-74
2022/10/20 03:04:33;;;;;;;2.78;1.77;;;5.70;99.90;;;;;;6297662;22;20014;-74
2022/10/20 03:06:59;;;;;;;1.77;1.20;;;5.70;99.90;;;;;;6298848;22;20034;-67
2022/10/20 03:09:25;;;;;;;2.20;1.13;;;5.70;99.90;;;;;;6297738;22;20518;-67
2022/10/20 03:11:50;;;;;;;1.60;1.38;;;5.70;99.90;;;;;;6299943;22;20003;-67
2022/10/20 03:14:16;;;;;;;1.85;1.10;;;5.60;99.90;;;;;;6298410;22;20035;-67
2022/10/20 03:16:41;;;;;;;3.47;1.27;;;5.50;99.90;;;;;;6296055;22;20007;-67
2022/10/20 03:19:07;;;;;;;2.22;1.67;;;5.30;99.90;;;;;;6296595;22;20019;-67
2022/10/20 03:21:33;;;;;;;3.22;1.52;;;5.20;99.90;;;;;;6297203;22;20026;-67
2022/10/20 03:23:58;;;;;;;3.30;1.25;;;5.30;99.90;;;;;;6296140;22;20433;-67
2022/10/20 03:26:24;;;;;;;1.30;1.20;;;5.30;99.90;;;;;;6298004;22;20040;-67
2022/10/20 03:28:49;;;;;;;2.22;1.33;;;5.30;99.90;;;;;;6297301;22;20141;-67
2022/10/20 03:31:15;;;;;;;2.28;1.20;;;5.20;99.90;;;;;;6296130;22;20003;-67
2022/10/20 03:33:41;;;;;;;2.67;1.33;;;5.30;99.90;;;;;;6295228;22;20076;-67
2022/10/20 03:36:07;;;;;;;2.22;1.10;;;5.30;99.90;;;;;;6295004;22;20096;-67
2022/10/20 03:38:32;;;;;;;1.20;1.00;;;5.30;99.90;;;;;;6295673;22;20007;-66
2022/10/20 03:40:58;;;;;;;1.42;1.08;;;5.20;99.90;;;;;;6269248;22;20010;-68
2022/10/20 03:43:24;;;;;;;1.98;1.02;;;5.20;99.90;;;;;;6297356;22;20058;-66
2022/10/20 03:45:49;;;;;;;1.52;1.10;;;5.30;99.90;;;;;;6296764;22;20067;-66
2022/10/20 03:48:15;;;;;;;0.85;0.70;;;5.20;99.90;;;;;;6295944;22;20030;-67
2022/10/20 03:50:41;;;;;;;2.20;0.82;;;5.20;99.90;;;;;;6296895;22;19995;-67
2022/10/20 03:53:10;;;;;;;2.00;0.95;;;5.20;99.90;;;;;;6295167;22;20011;-67
2022/10/20 03:55:36;;;;;;;1.40;1.00;;;5.10;99.90;;;;;;6297355;22;20006;-67
2022/10/20 03:58:02;;;;;;;1.85;0.77;;;5.00;99.90;;;;;;6297735;22;20039;-67
2022/10/20 04:00:28;;;;;;;1.55;0.88;;;4.90;99.90;;;;;;6268556;22;20038;-67
2022/10/20 04:02:53;;;;;;;1.30;0.98;;;4.80;99.90;;;;;;6296339;22;20061;-67
2022/10/20 04:05:20;;;;;;;0.80;0.80;;;4.80;99.90;;;;;;6296836;22;20444;-73
2022/10/20 04:07:46;;;;;;;0.75;0.73;;;4.80;99.90;;;;;;6296603;22;20656;-73
2022/10/20 04:10:13;;;;;;;0.63;0.63;;;4.80;99.90;;;;;;6291118;22;20010;-73
2022/10/20 04:12:38;;;;;;;2.20;0.80;;;4.80;99.90;;;;;;6296886;22;20010;-73
2022/10/20 04:15:05;;;;;;;2.35;1.20;;;4.80;99.90;;;;;;6268281;22;20085;-73
2022/10/20 04:17:31;;;;;;;2.47;0.80;;;4.80;99.90;;;;;;6296892;22;20039;-73
2022/10/20 04:19:56;;;;;;;0.80;0.70;;;4.80;99.90;;;;;;6296829;22;20003;-73
2022/10/20 04:22:22;;;;;;;3.28;0.90;;;4.80;99.90;;;;;;6296367;22;20010;-73
2022/10/20 04:24:47;;;;;;;1.70;0.80;;;4.80;99.90;;;;;;6296322;22;20086;-67
2022/10/20 04:27:13;;;;;;;1.83;1.23;;;4.70;99.90;;;;;;6296460;22;20094;-67
2022/10/20 04:29:38;;;;;;;1.48;1.00;;;4.70;99.90;;;;;;6298230;22;20011;-66
2022/10/20 04:32:04;;;;;;;1.85;1.15;;;4.70;99.90;;;;;;6295715;22;20006;-66
2022/10/20 04:34:30;;;;;;;1.85;0.90;;;4.70;99.90;;;;;;6290588;22;20021;-66
2022/10/20 04:36:56;;;;;;;2.33;1.02;;;4.80;99.90;;;;;;6295567;22;20003;-66
2022/10/20 04:39:22;;;;;;;1.92;0.80;;;4.80;99.90;;;;;;6296359;22;20807;-66
2022/10/20 04:41:47;;;;;;;1.35;1.25;;;4.70;99.90;;;;;;6297639;22;19996;-67
2022/10/20 04:44:13;;;;;;;1.77;0.90;;;4.70;99.90;;;;;;6295831;22;20088;-73
2022/10/20 04:46:39;;;;;;;1.50;1.40;;;4.60;99.90;;;;;;6294225;22;20017;-73
2022/10/20 04:49:05;;;;;;;0.80;0.80;;;4.60;99.90;;;;;;6294289;22;20056;-73
2022/10/20 04:51:31;;;;;;;1.15;0.93;;;4.50;99.90;;;;;;6295034;22;20062;-74
2022/10/20 04:53:56;;;;;;;2.55;1.58;;;4.60;99.90;;;;;;6293944;22;20003;-72
2022/10/20 04:56:22;;;;;;;3.45;1.17;;;4.60;99.90;;;;;;6269485;22;20098;-73
2022/10/20 04:58:55;;;;;;;1.40;0.98;;;4.50;99.90;;;;;;6294003;22;20011;-73
2022/10/20 05:01:23;;;;;;;2.17;1.00;;;4.40;99.90;;;;;;6289480;22;20007;-72
2022/10/20 05:03:48;;;;;;;1.70;0.82;;;4.40;99.90;;;;;;6292131;22;20007;-74
2022/10/20 05:06:15;;;;;;;1.40;0.90;;;4.40;99.90;;;;;;6294983;22;20003;-73
2022/10/20 05:08:42;;;;;;;1.40;0.88;;;4.40;99.90;;;;;;6296687;22;19999;-73
2022/10/20 05:11:09;;;;;;;2.25;0.93;;;4.30;99.90;;;;;;6296133;22;20086;-72
2022/10/20 05:13:36;;;;;;;1.05;0.77;;;4.30;99.90;;;;;;6293869;22;20006;-72
2022/10/20 05:16:02;;;;;;;2.58;1.20;;;4.30;99.90;;;;;;6265275;22;20452;-72
2022/10/20 05:18:28;;;;;;;3.10;1.15;;;4.20;99.90;;;;;;6297878;22;20011;-72
2022/10/20 05:20:54;;;;;;;1.08;0.88;;;4.20;99.90;;;;;;6295608;22;20010;-73
2022/10/20 05:23:20;;;;;;;2.20;1.17;;;4.20;99.90;;;;;;6295888;22;20026;-72
2022/10/20 05:25:45;;;;;;;8.90;1.33;;;4.30;99.90;;;;;;6296574;22;19999;-72
2022/10/20 05:28:11;;;;;;;6.10;1.58;;;4.40;99.90;;;;;;6295779;22;20666;-72
2022/10/20 05:30:37;;;;;;;3.47;1.40;;;4.40;99.90;;;;;;6296530;22;20045;-72
2022/10/20 05:33:02;;;;;;;3.85;1.63;;;4.40;99.90;;;;;;6296230;22;20434;-71
2022/10/20 05:35:28;;;;;;;3.78;1.38;;;4.40;99.90;;;;;;6296896;22;20061;-71
2022/10/20 05:37:55;;;;;;;9.50;2.10;;;4.50;99.90;;;;;;6295603;22;20007;-71
2022/10/20 05:40:21;;;;;;;6.78;2.05;;;4.60;99.90;;;;;;6296445;22;20000;-72
2022/10/20 05:42:47;;;;;;;5.90;3.55;;;4.60;99.90;;;;;;6297271;22;20003;-73
2022/10/20 05:45:13;;;;;;;6.78;4.50;;;4.60;99.90;;;;;;6294966;22;20177;-71
2022/10/20 05:47:38;;;;;;;2.13;1.45;;;4.70;99.90;;;;;;6296824;22;20003;-71
2022/10/20 05:50:04;;;;;;;3.55;1.15;;;4.70;99.90;;;;;;6293589;22;20008;-71
2022/10/20 05:52:30;;;;;;;2.45;0.98;;;4.70;99.90;;;;;;6295633;22;20007;-70
2022/10/20 05:54:56;;;;;;;2.13;1.30;;;4.80;99.90;;;;;;6296622;22;20006;-70
2022/10/20 05:57:21;;;;;;;0.98;0.90;;;4.70;99.90;;;;;;6297831;22;20007;-69
2022/10/20 05:59:47;;;;;;;4.20;0.80;;;4.70;99.90;;;;;;6296472;22;20007;-70
2022/10/20 06:02:13;;;;;;;2.70;1.58;;;4.80;99.90;;;;;;6296156;22;20003;-71
2022/10/20 06:04:39;;;;;;;1.80;1.08;;;4.80;99.90;;;;;;6293291;22;20003;-71
2022/10/20 06:07:04;;;;;;;3.78;1.30;;;4.80;99.90;;;;;;6295034;22;20007;-71
2022/10/20 06:09:31;;;;;;;3.25;1.30;;;4.80;99.90;;;;;;6295034;22;20010;-71
2022/10/20 06:11:57;;;;;;;2.40;2.20;;;4.80;99.90;;;;;;6296337;22;20056;-71
2022/10/20 06:14:24;;;;;;;3.03;2.35;;;4.90;99.90;;;;;;6296243;22;20006;-71
2022/10/20 06:16:51;;;;;;;3.53;2.03;;;5.00;99.90;;;;;;6296366;22;20003;-71
2022/10/20 06:19:17;;;;;;;2.92;1.65;;;5.10;99.90;;;;;;6296549;22;20017;-71
2022/10/20 06:21:43;;;;;;;3.67;2.65;;;5.20;99.90;;;;;;6297810;22;20336;-71
2022/10/20 06:24:10;;;;;;;2.15;1.92;;;5.30;99.90;;;;;;6298049;22;20006;-70
2022/10/20 06:26:38;;;;;;;3.50;1.95;;;5.40;99.90;;;;;;6296428;22;20022;-71
2022/10/20 06:29:05;;;;;;;3.45;1.42;;;5.50;99.90;;;;;;6265825;22;20007;-71
2022/10/20 06:31:34;;;;;;;3.65;2.00;;;5.50;99.90;;;;;;6297175;22;20000;-71
2022/10/20 06:34:03;;;;;;;4.97;2.88;;;5.50;99.90;;;;;;6304915;22;20432;-71
2022/10/20 06:36:28;;;;;;;5.93;2.50;;;5.50;99.90;;;;;;6305282;22;19999;-64
2022/10/20 06:38:55;;;;;;;10.98;2.67;;;5.60;99.90;;;;;;6299294;22;20066;-66
2022/10/20 06:41:22;;;;;;;5.25;2.60;;;5.90;99.90;;;;;;6300148;22;20008;-66
2022/10/20 06:43:47;;;;;;;3.63;2.95;;;6.10;99.90;;;;;;6299750;22;20010;-66
2022/10/20 06:46:17;;;;;;;2.63;2.30;;;6.20;99.90;;;;;;6297435;22;20003;-67
2022/10/20 06:48:43;;;;;;;4.20;2.00;;;6.40;99.90;;;;;;6300101;22;20015;-67
2022/10/20 06:51:14;;;;;;;2.58;2.03;;;6.60;99.90;;;;;;6301552;22;20009;-64
2022/10/20 06:53:40;;;;;;;4.13;2.17;;;6.90;99.90;;;;;;6274820;22;20003;-67
2022/10/20 06:56:09;;;;;;;2.50;2.00;;;7.30;99.90;;;;;;6299890;22;20104;-66
2022/10/20 06:58:37;;;;;;;3.40;1.80;;;7.50;99.90;;;;;;6301974;22;20046;-67
2022/10/20 07:01:10;;;;;;;2.78;1.77;;;7.70;99.90;;;;;;6298947;22;20003;-66
2022/10/20 07:03:36;;;;;;;3.40;1.60;;;7.90;99.90;;;;;;6301430;22;20003;-67
2022/10/20 07:06:03;;;;;;;3.65;2.25;;;8.20;99.90;;;;;;6302229;22;20029;-67
2022/10/20 07:08:30;;;;;;;2.40;1.30;;;8.40;99.90;;;;;;6302450;22;20061;-65
2022/10/20 07:11:09;;;;;;;2.55;1.80;;;8.60;99.90;;;;;;6300867;22;20336;-67
2022/10/20 07:13:36;;;;;;;2.97;1.35;;;8.90;99.90;;;;;;6302174;22;20019;-65
2022/10/20 07:16:02;;;;;;;3.05;1.85;;;9.20;99.90;;;;;;6297622;22;19995;-65
2022/10/20 07:18:29;;;;;;;3.28;1.40;;;9.60;99.90;;;;;;6298428;22;20023;-66
2022/10/20 07:20:57;;;;;;;1.63;1.40;;;9.80;99.90;;;;;;6299240;22;20035;-66
2022/10/20 07:23:24;;;;;;;16.85;1.90;;;10.00;99.90;;;;;;6298429;22;20010;-65
2022/10/20 07:25:49;;;;;;;2.33;1.60;;;10.30;99.90;;;;;;6296021;22;19999;-66
2022/10/20 07:28:15;;;;;;;2.40;1.90;;;10.60;99.90;;;;;;6296041;22;20034;-66
2022/10/20 07:30:41;;;;;;;2.28;1.90;;;10.80;99.90;;;;;;6298720;22;19995;-66
2022/10/20 07:33:08;;;;;;;2.90;1.80;;;10.90;99.90;;;;;;6298704;22;20007;-66
2022/10/20 07:35:34;;;;;;;3.05;2.05;;;11.10;99.90;;;;;;6295238;22;20010;-67
2022/10/20 07:38:00;;;;;;;6.53;4.40;;;11.30;99.90;;;;;;6293953;22;20037;-65
2022/10/20 07:40:26;;;;;;;4.90;3.58;;;11.50;99.90;;;;;;6293932;22;20007;-65
2022/10/20 07:42:52;;;;;;;3.85;2.97;;;11.60;99.90;;;;;;6297701;22;20015;-65
2022/10/20 07:45:18;;;;;;;6.32;2.20;;;11.90;99.90;;;;;;6298002;22;20008;-65
2022/10/20 07:47:44;;;;;;;4.35;2.50;;;12.10;99.90;;;;;;6298007;22;20390;-65
2022/10/20 07:50:11;;;;;;;2.85;2.00;;;12.30;99.90;;;;;;6268524;22;20154;-65
2022/10/20 07:52:37;;;;;;;3.67;1.77;;;12.50;99.90;;;;;;6296215;22;19999;-65
2022/10/20 07:55:03;;;;;;;2.13;1.90;;;12.70;99.90;;;;;;6296380;22;20010;-68
2022/10/20 07:57:28;;;;;;;3.78;1.80;;;12.80;99.90;;;;;;6296715;22;20002;-65
2022/10/20 07:59:54;;;;;;;2.17;1.50;;;12.90;99.90;;;;;;6294112;22;19999;-65
2022/10/20 08:02:20;;;;;;;3.67;2.70;;;13.10;99.90;;;;;;6296472;22;20003;-65
2022/10/20 08:04:45;;;;;;;6.00;2.60;;;13.20;99.90;;;;;;6294374;22;20003;-66
2022/10/20 08:07:11;;;;;;;2.05;1.48;;;13.40;99.90;;;;;;6296746;22;20293;-65
2022/10/20 08:09:37;;;;;;;2.60;1.38;;;13.40;99.90;;;;;;6295639;22;20672;-66
2022/10/20 08:12:03;;;;;;;4.32;1.98;;;13.40;99.90;;;;;;6296874;22;20010;-66
2022/10/20 08:14:34;;;;;;;5.20;2.38;;;13.40;99.90;;;;;;6295189;22;20082;-65
2022/10/20 08:17:01;;;;;;;5.25;1.95;;;13.40;99.90;;;;;;6297692;22;20437;-65
2022/10/20 08:19:27;;;;;;;3.35;2.08;;;13.40;99.90;;;;;;6268706;22;20043;-65
2022/10/20 08:21:52;;;;;;;4.82;2.10;;;13.50;99.90;;;;;;6297885;22;20412;-65
2022/10/20 08:24:18;;;;;;;5.63;2.30;;;13.60;99.90;;;;;;6296165;22;20003;-65
2022/10/20 08:26:44;;;;;;;3.60;2.08;;;13.80;99.90;;;;;;6297594;22;20434;-65
2022/10/20 08:29:11;;;;;;;5.35;1.83;;;14.00;99.90;;;;;;6295422;22;20030;-65
2022/10/20 08:31:37;;;;;;;1.95;1.60;;;14.00;99.90;;;;;;6293760;22;20007;-69
2022/10/20 08:34:02;;;;;;;5.57;2.20;;;13.90;99.90;;;;;;6296690;22;20007;-70
2022/10/20 08:36:28;;;;;;;4.50;1.92;;;13.90;99.90;;;;;;6297543;22;20567;-69
2022/10/20 08:38:55;;;;;;;4.57;2.05;;;14.00;99.90;;;;;;6295933;22;20081;-69
2022/10/20 08:41:25;;;;;;;3.08;2.22;;;13.90;99.90;;;;;;6263432;22;20007;-69
2022/10/20 08:43:55;;;;;;;3.00;2.10;;;13.90;99.90;;;;;;6295209;22;20007;-69
2022/10/20 08:46:28;;;;;;;3.97;2.20;;;14.00;99.90;;;;;;6295004;22;20472;-69
2022/10/20 08:48:54;;;;;;;5.22;1.98;;;14.00;99.90;;;;;;6295715;22;20006;-69
2022/10/20 08:51:27;;;;;;;3.47;2.10;;;14.00;99.90;;;;;;6298434;22;20333;-70
2022/10/20 08:53:58;;;;;;;5.55;2.50;;;13.90;99.90;;;;;;6298526;22;20015;-70
2022/10/20 08:56:27;;;;;;;6.22;2.45;;;13.90;99.90;;;;;;6297127;22;19999;-70
2022/10/20 08:58:53;;;;;;;3.55;2.00;;;13.90;99.90;;;;;;6297582;22;20375;-70
2022/10/20 09:01:20;;;;;;;4.68;1.90;;;14.00;99.90;;;;;;6295258;22;20052;-70
2022/10/20 09:03:51;;;;;;;4.63;1.90;;;14.00;99.90;;;;;;6298732;22;20109;-70
2022/10/20 09:06:17;;;;;;;2.97;1.45;;;14.10;99.90;;;;;;6268772;22;20572;-70
2022/10/20 09:08:43;;;;;;;2.83;2.00;;;14.20;99.90;;;;;;6295609;22;20010;-70
2022/10/20 09:11:22;;;;;;;2.25;1.90;;;14.20;99.90;;;;;;6295716;22;20526;-69
2022/10/20 09:13:47;;;;;;;3.20;2.22;;;14.40;99.90;;;;;;6293869;22;20014;-70
2022/10/20 09:16:28;;;;;;;2.90;1.92;;;14.60;99.90;;;;;;6293634;22;19999;-70
2022/10/20 09:18:59;;;;;;;5.75;1.80;;;14.60;99.90;;;;;;6292526;22;20113;-69
2022/10/20 09:21:25;;;;;;;3.40;1.40;;;14.70;99.90;;;;;;6295918;22;20080;-69
2022/10/20 09:23:55;;;;;;;6.85;2.70;;;14.70;99.90;;;;;;6296572;22;20012;-69
2022/10/20 09:26:42;;;;;;;2.42;1.90;;;14.70;99.90;;;;;;6297452;22;20019;-69
2022/10/20 09:29:11;;;;;;;2.47;1.88;;;14.60;99.90;;;;;;6295453;22;20050;-69
2022/10/20 09:31:43;;;;;;;2.40;1.60;;;14.50;99.90;;;;;;6293971;22;20709;-69
2022/10/20 09:34:25;;;;;;;;;;;14.50;99.90;;;;;;6289357;22;20006;-70
2022/10/20 09:37:03;;;;;;;4.57;1.80;;;14.60;99.90;;;;;;6295127;22;19909;-70
2022/10/20 09:39:51;;;;;;;3.80;1.77;;;14.60;99.90;;;;;;6295693;22;20022;-70
2022/10/20 09:42:24;;;;;;;5.22;1.80;;;14.70;99.90;;;;;;6294142;22;20014;-71
2022/10/20 09:44:57;;;;;;;4.18;2.20;;;14.80;99.90;;;;;;6292531;22;20441;-70
2022/10/20 09:47:25;;;;;;;3.05;1.77;;;14.80;99.90;;;;;;6296189;22;20010;-70
2022/10/20 09:49:57;;;;;;;2.55;1.98;;;14.80;99.90;;;;;;6296399;22;20079;-71
2022/10/20 09:52:30;;;;;;;6.18;1.80;;;14.80;99.90;;;;;;6295974;22;20004;-70
2022/10/20 09:55:01;;;;;;;2.67;2.00;;;14.90;99.90;;;;;;6296857;22;20065;-71
2022/10/20 09:57:27;;;;;;;2.35;1.95;;;15.00;99.90;;;;;;6295379;22;20329;-70
2022/10/20 09:59:55;;;;;;;2.92;2.03;;;15.10;99.90;;;;;;6295472;22;20003;-70
2022/10/20 10:02:20;;;;;;;2.53;1.67;;;15.20;99.90;;;;;;6297234;22;20003;-70
2022/10/20 10:04:48;;;;;;;2.45;1.67;;;15.20;99.90;;;;;;6296412;22;20618;-70
2022/10/20 10:07:26;;;;;;;2.47;1.83;;;15.10;99.90;;;;;;6296021;22;20003;-70
2022/10/20 10:09:59;;;;;;;6.00;2.00;;;15.10;99.90;;;;;;6293417;22;20007;-70
2022/10/20 10:12:27;;;;;;;5.28;1.98;;;15.10;99.90;;;;;;6294891;22;20101;-69
2022/10/20 10:15:02;;;;;;;4.53;1.98;;;15.20;99.90;;;;;;6293314;22;20022;-70
2022/10/20 10:17:40;;;;;;;3.08;1.95;;;15.30;99.90;;;;;;6264702;22;20094;-70
2022/10/20 10:20:11;;;;;;;2.80;1.80;;;15.40;99.90;;;;;;6295349;22;20399;-70
2022/10/20 10:22:38;;;;;;;4.30;2.00;;;15.50;99.90;;;;;;6295003;22;20000;-70
2022/10/20 10:25:06;;;;;;;2.90;2.10;;;15.50;99.90;;;;;;6294432;22;20335;-70
2022/10/20 10:27:34;;;;;;;3.20;2.15;;;15.50;99.90;;;;;;6291062;22;20625;-71
2022/10/20 10:30:23;;;;;;;5.70;2.10;;;15.50;99.90;;;;;;6297517;22;20003;-70
2022/10/20 10:32:48;;;;;;;4.82;2.00;;;15.60;99.90;;;;;;6298839;22;20052;-71
2022/10/20 10:35:32;;;;;;;3.38;2.20;;;15.60;99.90;;;;;;6297649;22;20011;-71
2022/10/20 10:37:59;;;;;;;2.78;1.90;;;15.70;99.80;;;;;;6298956;22;20086;-71
2022/10/20 10:40:35;;;;;;;3.80;1.60;;;15.70;99.60;;;;;;6267927;22;20026;-71
2022/10/20 10:43:28;;;;;;;7.88;2.25;;;15.70;99.50;;;;;;6298983;22;20310;-70
2022/10/20 10:45:59;;;;;;;3.47;2.50;;;15.70;99.90;;;;;;6267245;22;20433;-69
2022/10/20 10:49:00;;;;;;;5.97;2.17;;;15.70;99.60;;;;;;6294462;22;19995;-71
2022/10/20 10:51:46;;;;;;;2.53;2.33;;;15.80;99.30;;;;;;6295099;22;20041;-71
2022/10/20 10:54:36;;;;;;;4.30;2.00;;;15.80;99.30;;;;;;6299364;22;20003;-72
2022/10/20 10:57:39;;;;;;;4.40;2.20;;;15.80;99.50;;;;;;6296624;22;20322;-72
2022/10/20 11:00:24;;;;;;;3.88;2.10;;;15.90;98.60;;;;;;6260733;22;20020;-72
2022/10/20 11:03:14;;;;;;;3.05;2.00;;;15.90;98.70;;;;;;6292735;22;20011;-73
2022/10/20 11:06:05;;;;;;;6.50;2.38;;;15.90;98.40;;;;;;6296971;22;20086;-71
2022/10/20 11:09:04;;;;;;;6.28;2.30;;;15.90;98.30;;;;;;6297015;22;20058;-71
2022/10/20 11:11:37;;;;;;;91.18;53.90;;;16.00;98.50;;;;;;6297118;22;20014;-71
2022/10/20 11:14:29;;;;;;;7.60;6.57;;;16.10;98.50;;;;;;6295495;22;20003;-71
2022/10/20 11:17:34;;;;;;;4.80;3.75;;;16.20;97.90;;;;;;6297323;22;20041;-71
2022/10/20 11:20:12;;;;;;;5.50;2.28;;;16.20;97.30;;;;;;6277163;22;20472;-70
2022/10/20 11:23:15;;;;;;;2.55;2.35;;;16.20;97.50;;;;;;6298343;22;20511;-70
2022/10/20 11:26:17;;;;;;;5.80;2.60;;;16.20;96.80;;;;;;6297614;22;20086;-72
2022/10/20 11:28:46;;;;;;;3.53;2.53;;;16.10;97.50;;;;;;6266729;22;20452;-72
2022/10/20 11:31:22;;;;;;;4.30;2.08;;;16.10;97.30;;;;;;6262427;22;20527;-72
2022/10/20 11:34:12;;;;;;;3.13;2.17;;;16.10;97.30;;;;;;6266628;22;20297;-72
2022/10/20 11:36:44;;;;;;;3.45;1.88;;;16.10;96.70;;;;;;6265912;22;20500;-71
2022/10/20 11:39:38;;;;;;;6.07;2.10;;;16.10;97.50;;;;;;6266878;22;20022;-72
2022/10/20 11:42:40;;;;;;;5.85;2.33;;;16.20;97.30;;;;;;6262969;22;20115;-72
2022/10/20 11:45:41;;;;;;;4.30;2.45;;;16.40;96.20;;;;;;6263100;22;20063;-72
2022/10/20 11:48:19;;;;;;;3.85;2.30;;;16.40;97.00;;;;;;6214155;22;20471;-73
2022/10/20 11:50:59;;;;;;;5.50;2.08;;;16.50;96.50;;;;;;6265989;22;20011;-70
2022/10/20 11:54:03;;;;;;;3.28;2.10;;;16.60;96.20;;;;;;6266284;22;20014;-71
2022/10/20 11:56:49;;;;;;;4.20;1.90;;;16.70;95.50;;;;;;6262192;22;19999;-71
2022/10/20 11:59:46;;;;;;;3.83;2.50;;;16.60;95.50;;;;;;6265007;22;20102;-71
2022/10/20 12:02:40;;;;;;;3.28;1.80;;;16.70;95.60;;;;;;6263805;22;20520;-72
2022/10/20 12:05:24;;;;;;;3.85;2.30;;;16.70;94.50;;;;;;6261169;22;19996;-70
2022/10/20 12:08:17;;;;;;;3.15;2.10;;;16.50;94.60;;;;;;6262382;22;20091;-71
2022/10/20 12:10:59;;;;;;;3.47;2.15;;;16.50;94.60;;;;;;6262492;22;20031;-70
2022/10/20 12:13:48;;;;;;;3.08;2.10;;;16.60;95.50;;;;;;6261888;22;20107;-70
2022/10/20 12:16:54;;;;;;;4.82;2.10;;;16.80;94.70;;;;;;6256937;22;19996;-70
2022/10/20 12:19:34;;;;;;;5.43;2.05;;;16.80;95.10;;;;;;6257026;22;20507;-71
2022/10/20 12:22:04;;;;;;;4.45;2.38;;;16.60;94.70;;;;;;6261034;22;20018;-72
2022/10/20 12:24:36;;;;;;;5.65;1.75;;;16.50;95.00;;;;;;6262802;22;20034;-72
2022/10/20 12:27:04;;;;;;;;;;;16.50;94.80;;;;;;6277832;22;20027;-72
2022/10/20 12:29:30;;;;;;;2.58;1.80;;;16.60;94.00;;;;;;6294372;22;20507;-72
2022/10/20 12:32:24;;;;;;;2.30;1.85;;;16.70;94.80;;;;;;6295608;22;19999;-72
2022/10/20 12:35:21;;;;;;;4.40;2.10;;;16.80;94.40;;;;;;6232625;22;20015;-72
2022/10/20 12:38:03;;;;;;;4.10;2.38;;;17.00;94.90;;;;;;6277851;22;20019;-72
2022/10/20 12:40:30;;;;;;;;;;;17.20;93.90;;;;;;6290613;22;20003;-67
2022/10/20 12:42:56;;;;;;;3.47;2.03;;;17.20;93.50;;;;;;6291424;22;19903;-66
2022/10/20 12:45:40;;;;;;;2.53;1.75;;;17.20;93.40;;;;;;6293774;22;20082;-66
2022/10/20 12:48:08;;;;;;;5.30;2.10;;;17.20;92.90;;;;;;6294724;22;20464;-67
2022/10/20 12:50:45;;;;;;;2.75;1.90;;;17.20;93.50;;;;;;6296060;22;20436;-67
2022/10/20 12:53:15;;;;;;;5.50;2.00;;;17.20;93.00;;;;;;6294792;22;20007;-66
2022/10/20 12:55:43;;;;;;;2.45;1.90;;;17.20;92.10;;;;;;6293306;22;20198;-66
2022/10/20 12:58:30;;;;;;;2.72;1.98;;;17.20;91.90;;;;;;6295231;22;20341;-72
2022/10/20 13:00:57;;;;;;;3.17;1.60;;;17.10;92.60;;;;;;6294595;22;20007;-71
2022/10/20 13:03:47;;;;;;;5.25;2.03;;;17.10;92.60;;;;;;6295745;22;20007;-71
2022/10/20 13:06:21;;;;;;;2.55;2.15;;;17.00;93.00;;;;;;6287653;22;20014;-73
2022/10/20 13:09:02;;;;;;;6.85;3.22;;;17.10;93.40;;;;;;6297159;22;20111;-71
2022/10/20 13:11:37;;;;;;;4.70;1.98;;;17.20;93.40;;;;;;6296942;22;20078;-71
2022/10/20 13:14:11;;;;;;;4.30;2.20;;;17.30;93.30;;;;;;6295512;22;20090;-71